sensor_id;sensor_type;location;lat;lon;timestamp;P1;durP1;ratioP1;P2;durP2;ratioP2
40621;SDS011;26324;52.040;11.528;2023-06-24T00:00:09;20.08;;;8.60;;
40621;SDS011;26324;52.040;11.528;2023-06-24T00:02:39;11.02;;;6.68;;
40621;SDS011;26324;52.040;11.528;2023-06-24T00:05:10;16.52;;;7.32;;
40621;SDS011;26324;52.040;11.528;2023-06-24T00:07:39;12.25;;;7.10;;
40621;SDS011;26324;52.040;11.528;2023-06-24T00:10:12;12.70;;;6.72;;
40621;SDS011;26324;52.040;11.528;2023-06-24T00:12:44;11.48;;;6.60;;
40621;SDS011;26324;52.040;11.528;2023-06-24T00:15:11;11.27;;;7.05;;
40621;SDS011;26324;52.040;11.528;2023-06-24T00:17:39;10.63;;;5.65;;
40621;SDS011;26324;52.040;11.528;2023-06-24T00:20:09;11.50;;;6.50;;
40621;SDS011;26324;52.040;11.528;2023-06-24T00:22:41;12.10;;;6.82;;
40621;SDS011;26324;52.040;11.528;2023-06-24T00:25:12;16.48;;;6.50;;
40621;SDS011;26324;52.040;11.528;2023-06-24T00:27:41;13.65;;;6.72;;
40621;SDS011;26324;52.040;11.528;2023-06-24T00:30:12;11.77;;;6.55;;
40621;SDS011;26324;52.040;11.528;2023-06-24T00:32:39;11.63;;;6.68;;
40621;SDS011;26324;52.040;11.528;2023-06-24T00:35:07;14.60;;;5.78;;
40621;SDS011;26324;52.040;11.528;2023-06-24T00:37:38;11.20;;;5.32;;
40621;SDS011;26324;52.040;11.528;2023-06-24T00:40:09;15.80;;;6.82;;
40621;SDS011;26324;52.040;11.528;2023-06-24T00:42:45;9.40;;;5.90;;
40621;SDS011;26324;52.040;11.528;2023-06-24T00:45:15;10.77;;;5.93;;
40621;SDS011;26324;52.040;11.528;2023-06-24T00:47:44;9.13;;;5.93;;
40621;SDS011;26324;52.040;11.528;2023-06-24T00:50:12;11.73;;;5.82;;
40621;SDS011;26324;52.040;11.528;2023-06-24T00:52:39;9.43;;;5.53;;
40621;SDS011;26324;52.040;11.528;2023-06-24T00:55:10;10.27;;;5.45;;
40621;SDS011;26324;52.040;11.528;2023-06-24T00:57:43;13.77;;;5.68;;
40621;SDS011;26324;52.040;11.528;2023-06-24T01:00:13;8.98;;;5.43;;
40621;SDS011;26324;52.040;11.528;2023-06-24T01:02:43;8.77;;;5.50;;
40621;SDS011;26324;52.040;11.528;2023-06-24T01:05:11;9.38;;;5.35;;
40621;SDS011;26324;52.040;11.528;2023-06-24T01:07:38;11.15;;;5.63;;
40621;SDS011;26324;52.040;11.528;2023-06-24T01:10:07;11.25;;;5.97;;
40621;SDS011;26324;52.040;11.528;2023-06-24T01:12:36;10.90;;;6.45;;
40621;SDS011;26324;52.040;11.528;2023-06-24T01:15:06;11.35;;;6.18;;
40621;SDS011;26324;52.040;11.528;2023-06-24T01:17:43;9.65;;;5.43;;
40621;SDS011;26324;52.040;11.528;2023-06-24T01:36:33;10.00;;;4.97;;
40621;SDS011;26324;52.040;11.528;2023-06-24T01:39:05;9.45;;;5.18;;
40621;SDS011;26324;52.040;11.528;2023-06-24T01:41:43;15.95;;;6.15;;
40621;SDS011;26324;52.040;11.528;2023-06-24T01:44:14;9.70;;;6.15;;
40621;SDS011;26324;52.040;11.528;2023-06-24T01:46:44;10.10;;;6.35;;
40621;SDS011;26324;52.040;11.528;2023-06-24T01:49:15;13.68;;;6.32;;
40621;SDS011;26324;52.040;11.528;2023-06-24T01:51:44;12.02;;;6.50;;
40621;SDS011;26324;52.040;11.528;2023-06-24T01:54:15;10.82;;;6.25;;
40621;SDS011;26324;52.040;11.528;2023-06-24T01:56:49;13.18;;;5.78;;
40621;SDS011;26324;52.040;11.528;2023-06-24T01:59:19;14.00;;;6.22;;
40621;SDS011;26324;52.040;11.528;2023-06-24T02:01:48;10.48;;;5.43;;
40621;SDS011;26324;52.040;11.528;2023-06-24T02:04:18;11.85;;;5.63;;
40621;SDS011;26324;52.040;11.528;2023-06-24T02:06:48;13.43;;;5.63;;
40621;SDS011;26324;52.040;11.528;2023-06-24T02:09:17;14.65;;;5.07;;
40621;SDS011;26324;52.040;11.528;2023-06-24T02:11:46;10.13;;;5.13;;
40621;SDS011;26324;52.040;11.528;2023-06-24T02:14:15;10.30;;;4.93;;
40621;SDS011;26324;52.040;11.528;2023-06-24T02:16:44;11.35;;;5.63;;
40621;SDS011;26324;52.040;11.528;2023-06-24T02:19:13;9.88;;;5.50;;
40621;SDS011;26324;52.040;11.528;2023-06-24T02:21:45;10.00;;;5.65;;
40621;SDS011;26324;52.040;11.528;2023-06-24T02:24:13;8.25;;;5.10;;
40621;SDS011;26324;52.040;11.528;2023-06-24T02:26:41;8.77;;;4.43;;
40621;SDS011;26324;52.040;11.528;2023-06-24T02:29:09;7.40;;;5.15;;
40621;SDS011;26324;52.040;11.528;2023-06-24T02:31:39;7.80;;;4.65;;
40621;SDS011;26324;52.040;11.528;2023-06-24T02:34:07;12.35;;;5.57;;
40621;SDS011;26324;52.040;11.528;2023-06-24T02:36:35;8.85;;;4.97;;
40621;SDS011;26324;52.040;11.528;2023-06-24T02:39:03;9.85;;;4.65;;
40621;SDS011;26324;52.040;11.528;2023-06-24T02:41:30;8.52;;;4.63;;
40621;SDS011;26324;52.040;11.528;2023-06-24T02:43:58;9.60;;;4.97;;
40621;SDS011;26324;52.040;11.528;2023-06-24T02:46:25;9.63;;;5.38;;
40621;SDS011;26324;52.040;11.528;2023-06-24T02:48:56;8.80;;;4.00;;
40621;SDS011;26324;52.040;11.528;2023-06-24T02:51:25;7.50;;;4.07;;
40621;SDS011;26324;52.040;11.528;2023-06-24T02:53:53;10.52;;;5.18;;
40621;SDS011;26324;52.040;11.528;2023-06-24T02:56:37;8.93;;;4.63;;
40621;SDS011;26324;52.040;11.528;2023-06-24T02:59:09;9.43;;;4.43;;
40621;SDS011;26324;52.040;11.528;2023-06-24T03:01:37;10.73;;;4.47;;
40621;SDS011;26324;52.040;11.528;2023-06-24T03:04:07;8.45;;;4.60;;
40621;SDS011;26324;52.040;11.528;2023-06-24T03:06:35;7.10;;;4.30;;
40621;SDS011;26324;52.040;11.528;2023-06-24T03:09:04;6.93;;;4.00;;
40621;SDS011;26324;52.040;11.528;2023-06-24T03:11:32;7.57;;;3.90;;
40621;SDS011;26324;52.040;11.528;2023-06-24T03:14:12;9.75;;;4.05;;
40621;SDS011;26324;52.040;11.528;2023-06-24T03:16:42;7.75;;;4.25;;
40621;SDS011;26324;52.040;11.528;2023-06-24T03:19:15;9.18;;;4.60;;
40621;SDS011;26324;52.040;11.528;2023-06-24T03:21:42;6.72;;;4.20;;
40621;SDS011;26324;52.040;11.528;2023-06-24T03:24:12;14.68;;;5.07;;
40621;SDS011;26324;52.040;11.528;2023-06-24T03:26:42;11.18;;;4.40;;
40621;SDS011;26324;52.040;11.528;2023-06-24T03:29:12;8.50;;;4.25;;
40621;SDS011;26324;52.040;11.528;2023-06-24T03:31:47;7.50;;;4.88;;
40621;SDS011;26324;52.040;11.528;2023-06-24T03:34:19;10.05;;;4.05;;
40621;SDS011;26324;52.040;11.528;2023-06-24T03:36:47;9.10;;;4.18;;
40621;SDS011;26324;52.040;11.528;2023-06-24T03:39:15;9.05;;;4.35;;
40621;SDS011;26324;52.040;11.528;2023-06-24T03:41:43;10.38;;;4.10;;
40621;SDS011;26324;52.040;11.528;2023-06-24T03:44:12;8.02;;;4.32;;
40621;SDS011;26324;52.040;11.528;2023-06-24T03:46:40;10.63;;;4.00;;
40621;SDS011;26324;52.040;11.528;2023-06-24T03:49:09;9.13;;;4.35;;
40621;SDS011;26324;52.040;11.528;2023-06-24T03:51:37;7.05;;;3.88;;
40621;SDS011;26324;52.040;11.528;2023-06-24T03:54:05;10.75;;;4.70;;
40621;SDS011;26324;52.040;11.528;2023-06-24T03:56:32;9.82;;;4.78;;
40621;SDS011;26324;52.040;11.528;2023-06-24T03:58:59;11.43;;;4.68;;
40621;SDS011;26324;52.040;11.528;2023-06-24T04:01:29;6.88;;;3.83;;
40621;SDS011;26324;52.040;11.528;2023-06-24T04:03:59;8.60;;;4.18;;
40621;SDS011;26324;52.040;11.528;2023-06-24T04:08:54;10.48;;;4.35;;
40621;SDS011;26324;52.040;11.528;2023-06-24T04:11:22;9.82;;;4.53;;
40621;SDS011;26324;52.040;11.528;2023-06-24T04:13:49;10.70;;;4.22;;
40621;SDS011;26324;52.040;11.528;2023-06-24T04:16:17;10.38;;;4.05;;
40621;SDS011;26324;52.040;11.528;2023-06-24T04:18:44;8.18;;;4.20;;
40621;SDS011;26324;52.040;11.528;2023-06-24T04:21:11;7.80;;;4.47;;
40621;SDS011;26324;52.040;11.528;2023-06-24T04:23:39;11.32;;;4.72;;
40621;SDS011;26324;52.040;11.528;2023-06-24T04:26:06;13.38;;;5.63;;
40621;SDS011;26324;52.040;11.528;2023-06-24T04:28:33;6.97;;;4.30;;
40621;SDS011;26324;52.040;11.528;2023-06-24T04:31:00;9.70;;;3.95;;
40621;SDS011;26324;52.040;11.528;2023-06-24T04:33:28;9.32;;;4.47;;
40621;SDS011;26324;52.040;11.528;2023-06-24T04:35:55;10.02;;;5.20;;
40621;SDS011;26324;52.040;11.528;2023-06-24T04:38:24;8.10;;;4.82;;
40621;SDS011;26324;52.040;11.528;2023-06-24T04:40:52;11.38;;;4.22;;
40621;SDS011;26324;52.040;11.528;2023-06-24T04:43:19;8.65;;;4.78;;
40621;SDS011;26324;52.040;11.528;2023-06-24T04:45:47;8.50;;;4.35;;
40621;SDS011;26324;52.040;11.528;2023-06-24T04:48:14;15.30;;;5.03;;
40621;SDS011;26324;52.040;11.528;2023-06-24T04:50:42;9.65;;;4.55;;
40621;SDS011;26324;52.040;11.528;2023-06-24T04:53:09;7.85;;;4.60;;
40621;SDS011;26324;52.040;11.528;2023-06-24T04:55:36;7.05;;;4.35;;
40621;SDS011;26324;52.040;11.528;2023-06-24T04:58:04;10.55;;;5.10;;
40621;SDS011;26324;52.040;11.528;2023-06-24T05:00:31;8.10;;;4.05;;
40621;SDS011;26324;52.040;11.528;2023-06-24T05:02:59;10.07;;;4.70;;
40621;SDS011;26324;52.040;11.528;2023-06-24T05:05:26;11.90;;;5.70;;
40621;SDS011;26324;52.040;11.528;2023-06-24T05:07:53;12.07;;;5.07;;
40621;SDS011;26324;52.040;11.528;2023-06-24T05:10:21;7.53;;;4.80;;
40621;SDS011;26324;52.040;11.528;2023-06-24T05:12:48;9.25;;;5.13;;
40621;SDS011;26324;52.040;11.528;2023-06-24T05:15:15;12.85;;;4.88;;
40621;SDS011;26324;52.040;11.528;2023-06-24T05:17:43;8.55;;;5.05;;
40621;SDS011;26324;52.040;11.528;2023-06-24T05:20:10;8.75;;;4.88;;
40621;SDS011;26324;52.040;11.528;2023-06-24T05:22:38;10.07;;;4.97;;
40621;SDS011;26324;52.040;11.528;2023-06-24T05:25:05;9.38;;;4.72;;
40621;SDS011;26324;52.040;11.528;2023-06-24T05:27:33;9.82;;;5.10;;
40621;SDS011;26324;52.040;11.528;2023-06-24T05:30:00;10.35;;;4.65;;
40621;SDS011;26324;52.040;11.528;2023-06-24T05:32:27;9.55;;;5.38;;
40621;SDS011;26324;52.040;11.528;2023-06-24T05:34:55;12.02;;;5.00;;
40621;SDS011;26324;52.040;11.528;2023-06-24T05:37:22;10.50;;;5.93;;
40621;SDS011;26324;52.040;11.528;2023-06-24T05:39:49;11.80;;;5.93;;
40621;SDS011;26324;52.040;11.528;2023-06-24T05:42:17;8.43;;;5.35;;
40621;SDS011;26324;52.040;11.528;2023-06-24T05:44:44;8.10;;;4.95;;
40621;SDS011;26324;52.040;11.528;2023-06-24T05:47:11;9.52;;;4.80;;
40621;SDS011;26324;52.040;11.528;2023-06-24T05:49:38;11.40;;;5.20;;
40621;SDS011;26324;52.040;11.528;2023-06-24T05:52:06;11.35;;;5.40;;
40621;SDS011;26324;52.040;11.528;2023-06-24T05:54:33;11.52;;;6.10;;
40621;SDS011;26324;52.040;11.528;2023-06-24T05:57:10;8.77;;;5.13;;
40621;SDS011;26324;52.040;11.528;2023-06-24T05:59:46;12.07;;;5.30;;
40621;SDS011;26324;52.040;11.528;2023-06-24T06:02:14;9.63;;;5.75;;
40621;SDS011;26324;52.040;11.528;2023-06-24T06:04:41;8.48;;;4.93;;
40621;SDS011;26324;52.040;11.528;2023-06-24T06:07:09;8.55;;;4.95;;
40621;SDS011;26324;52.040;11.528;2023-06-24T06:09:45;11.18;;;5.68;;
40621;SDS011;26324;52.040;11.528;2023-06-24T06:12:12;10.38;;;5.28;;
40621;SDS011;26324;52.040;11.528;2023-06-24T06:14:39;8.30;;;5.68;;
40621;SDS011;26324;52.040;11.528;2023-06-24T06:17:11;12.93;;;6.43;;
40621;SDS011;26324;52.040;11.528;2023-06-24T06:19:40;9.77;;;5.95;;
40621;SDS011;26324;52.040;11.528;2023-06-24T06:22:08;9.20;;;6.13;;
40621;SDS011;26324;52.040;11.528;2023-06-24T06:24:35;12.30;;;5.70;;
40621;SDS011;26324;52.040;11.528;2023-06-24T06:27:02;9.52;;;5.63;;
40621;SDS011;26324;52.040;11.528;2023-06-24T06:29:30;9.65;;;5.93;;
40621;SDS011;26324;52.040;11.528;2023-06-24T06:31:57;8.80;;;5.82;;
40621;SDS011;26324;52.040;11.528;2023-06-24T06:34:24;12.52;;;5.97;;
40621;SDS011;26324;52.040;11.528;2023-06-24T06:36:52;9.52;;;5.85;;
40621;SDS011;26324;52.040;11.528;2023-06-24T06:39:19;13.50;;;5.93;;
40621;SDS011;26324;52.040;11.528;2023-06-24T06:41:48;12.57;;;6.68;;
40621;SDS011;26324;52.040;11.528;2023-06-24T06:44:16;8.88;;;6.07;;
40621;SDS011;26324;52.040;11.528;2023-06-24T06:46:43;11.45;;;6.15;;
40621;SDS011;26324;52.040;11.528;2023-06-24T06:49:10;13.02;;;6.22;;
40621;SDS011;26324;52.040;11.528;2023-06-24T06:51:37;10.10;;;5.63;;
40621;SDS011;26324;52.040;11.528;2023-06-24T06:54:05;7.78;;;5.03;;
40621;SDS011;26324;52.040;11.528;2023-06-24T06:56:32;12.18;;;5.95;;
40621;SDS011;26324;52.040;11.528;2023-06-24T06:59:00;12.18;;;5.80;;
40621;SDS011;26324;52.040;11.528;2023-06-24T07:01:27;9.68;;;5.65;;
40621;SDS011;26324;52.040;11.528;2023-06-24T07:03:55;10.65;;;5.70;;
40621;SDS011;26324;52.040;11.528;2023-06-24T07:06:22;9.18;;;5.55;;
40621;SDS011;26324;52.040;11.528;2023-06-24T07:08:49;10.38;;;5.88;;
40621;SDS011;26324;52.040;11.528;2023-06-24T07:11:17;7.78;;;5.25;;
40621;SDS011;26324;52.040;11.528;2023-06-24T07:13:44;10.15;;;5.30;;
40621;SDS011;26324;52.040;11.528;2023-06-24T07:16:13;9.52;;;5.65;;
40621;SDS011;26324;52.040;11.528;2023-06-24T07:18:40;9.38;;;5.30;;
40621;SDS011;26324;52.040;11.528;2023-06-24T07:21:07;9.57;;;5.20;;
40621;SDS011;26324;52.040;11.528;2023-06-24T07:23:34;11.00;;;5.15;;
40621;SDS011;26324;52.040;11.528;2023-06-24T07:26:02;10.15;;;6.25;;
40621;SDS011;26324;52.040;11.528;2023-06-24T07:28:30;13.63;;;6.07;;
40621;SDS011;26324;52.040;11.528;2023-06-24T07:30:57;8.65;;;4.93;;
40621;SDS011;26324;52.040;11.528;2023-06-24T07:33:24;7.05;;;5.05;;
40621;SDS011;26324;52.040;11.528;2023-06-24T07:35:52;8.30;;;4.35;;
40621;SDS011;26324;52.040;11.528;2023-06-24T07:38:19;8.30;;;4.43;;
40621;SDS011;26324;52.040;11.528;2023-06-24T07:40:46;8.75;;;4.32;;
40621;SDS011;26324;52.040;11.528;2023-06-24T07:43:14;8.77;;;4.15;;
40621;SDS011;26324;52.040;11.528;2023-06-24T07:45:41;6.18;;;4.22;;
40621;SDS011;26324;52.040;11.528;2023-06-24T07:48:15;8.40;;;4.20;;
40621;SDS011;26324;52.040;11.528;2023-06-24T07:50:43;7.38;;;4.22;;
40621;SDS011;26324;52.040;11.528;2023-06-24T07:53:10;7.65;;;3.83;;
40621;SDS011;26324;52.040;11.528;2023-06-24T07:55:37;7.03;;;4.65;;
40621;SDS011;26324;52.040;11.528;2023-06-24T07:58:05;6.97;;;3.75;;
40621;SDS011;26324;52.040;11.528;2023-06-24T08:00:33;7.15;;;4.03;;
40621;SDS011;26324;52.040;11.528;2023-06-24T08:03:01;6.38;;;4.05;;
40621;SDS011;26324;52.040;11.528;2023-06-24T08:05:29;10.75;;;4.57;;
40621;SDS011;26324;52.040;11.528;2023-06-24T08:07:56;6.80;;;3.97;;
40621;SDS011;26324;52.040;11.528;2023-06-24T08:10:24;6.25;;;4.35;;
40621;SDS011;26324;52.040;11.528;2023-06-24T08:12:51;5.50;;;3.47;;
40621;SDS011;26324;52.040;11.528;2023-06-24T08:15:18;6.18;;;3.67;;
40621;SDS011;26324;52.040;11.528;2023-06-24T08:17:50;6.45;;;3.75;;
40621;SDS011;26324;52.040;11.528;2023-06-24T08:20:20;7.32;;;3.92;;
40621;SDS011;26324;52.040;11.528;2023-06-24T08:25:36;5.53;;;3.80;;
40621;SDS011;26324;52.040;11.528;2023-06-24T08:28:04;4.88;;;3.22;;
40621;SDS011;26324;52.040;11.528;2023-06-24T08:30:31;8.10;;;3.50;;
40621;SDS011;26324;52.040;11.528;2023-06-24T08:32:59;6.22;;;3.92;;
40621;SDS011;26324;52.040;11.528;2023-06-24T08:35:27;5.13;;;3.30;;
40621;SDS011;26324;52.040;11.528;2023-06-24T08:37:55;4.78;;;3.08;;
40621;SDS011;26324;52.040;11.528;2023-06-24T08:40:22;5.85;;;3.58;;
40621;SDS011;26324;52.040;11.528;2023-06-24T08:42:49;8.05;;;3.72;;
40621;SDS011;26324;52.040;11.528;2023-06-24T08:45:17;6.88;;;3.08;;
40621;SDS011;26324;52.040;11.528;2023-06-24T08:47:44;5.07;;;3.20;;
40621;SDS011;26324;52.040;11.528;2023-06-24T08:50:15;6.45;;;4.32;;
40621;SDS011;26324;52.040;11.528;2023-06-24T08:52:50;5.43;;;3.05;;
40621;SDS011;26324;52.040;11.528;2023-06-24T08:55:19;5.82;;;3.90;;
40621;SDS011;26324;52.040;11.528;2023-06-24T08:57:50;4.85;;;3.50;;
40621;SDS011;26324;52.040;11.528;2023-06-24T09:00:18;8.38;;;3.85;;
40621;SDS011;26324;52.040;11.528;2023-06-24T09:02:45;4.95;;;3.60;;
40621;SDS011;26324;52.040;11.528;2023-06-24T09:05:13;5.50;;;3.40;;
40621;SDS011;26324;52.040;11.528;2023-06-24T09:07:40;4.43;;;2.97;;
40621;SDS011;26324;52.040;11.528;2023-06-24T09:10:08;3.72;;;2.78;;
40621;SDS011;26324;52.040;11.528;2023-06-24T09:12:35;4.72;;;2.78;;
40621;SDS011;26324;52.040;11.528;2023-06-24T09:15:03;5.40;;;2.72;;
40621;SDS011;26324;52.040;11.528;2023-06-24T09:17:31;3.60;;;3.05;;
40621;SDS011;26324;52.040;11.528;2023-06-24T09:20:05;3.63;;;2.50;;
40621;SDS011;26324;52.040;11.528;2023-06-24T09:22:33;5.60;;;3.03;;
40621;SDS011;26324;52.040;11.528;2023-06-24T09:25:01;4.07;;;2.70;;
40621;SDS011;26324;52.040;11.528;2023-06-24T09:27:31;5.80;;;3.10;;
40621;SDS011;26324;52.040;11.528;2023-06-24T09:30:15;4.85;;;2.20;;
40621;SDS011;26324;52.040;11.528;2023-06-24T09:32:48;4.13;;;2.92;;
40621;SDS011;26324;52.040;11.528;2023-06-24T09:35:18;4.10;;;2.95;;
40621;SDS011;26324;52.040;11.528;2023-06-24T09:37:50;5.95;;;2.72;;
40621;SDS011;26324;52.040;11.528;2023-06-24T09:40:18;3.83;;;2.90;;
40621;SDS011;26324;52.040;11.528;2023-06-24T09:42:52;3.53;;;2.53;;
40621;SDS011;26324;52.040;11.528;2023-06-24T09:45:34;4.47;;;2.80;;
40621;SDS011;26324;52.040;11.528;2023-06-24T09:48:01;3.47;;;2.47;;
40621;SDS011;26324;52.040;11.528;2023-06-24T09:50:29;4.93;;;2.47;;
40621;SDS011;26324;52.040;11.528;2023-06-24T09:52:58;4.78;;;3.05;;
40621;SDS011;26324;52.040;11.528;2023-06-24T09:55:26;5.00;;;2.55;;
40621;SDS011;26324;52.040;11.528;2023-06-24T09:57:55;2.42;;;1.73;;
40621;SDS011;26324;52.040;11.528;2023-06-24T10:00:22;2.97;;;2.20;;
40621;SDS011;26324;52.040;11.528;2023-06-24T10:02:51;3.60;;;2.15;;
40621;SDS011;26324;52.040;11.528;2023-06-24T10:05:20;3.53;;;2.67;;
40621;SDS011;26324;52.040;11.528;2023-06-24T10:07:48;3.75;;;2.20;;
40621;SDS011;26324;52.040;11.528;2023-06-24T10:10:15;3.60;;;2.40;;
40621;SDS011;26324;52.040;11.528;2023-06-24T10:12:42;4.10;;;3.08;;
40621;SDS011;26324;52.040;11.528;2023-06-24T10:15:10;3.08;;;2.30;;
40621;SDS011;26324;52.040;11.528;2023-06-24T10:17:38;4.85;;;3.15;;
40621;SDS011;26324;52.040;11.528;2023-06-24T10:20:05;4.38;;;2.30;;
40621;SDS011;26324;52.040;11.528;2023-06-24T10:22:33;3.50;;;2.47;;
40621;SDS011;26324;52.040;11.528;2023-06-24T10:25:05;3.10;;;2.47;;
40621;SDS011;26324;52.040;11.528;2023-06-24T10:27:39;5.05;;;2.55;;
40621;SDS011;26324;52.040;11.528;2023-06-24T10:30:16;4.32;;;2.17;;
40621;SDS011;26324;52.040;11.528;2023-06-24T10:32:47;2.95;;;2.05;;
40621;SDS011;26324;52.040;11.528;2023-06-24T10:35:27;3.90;;;2.50;;
40621;SDS011;26324;52.040;11.528;2023-06-24T10:37:59;4.22;;;2.05;;
40621;SDS011;26324;52.040;11.528;2023-06-24T10:40:33;4.68;;;2.35;;
40621;SDS011;26324;52.040;11.528;2023-06-24T10:43:22;3.15;;;2.30;;
40621;SDS011;26324;52.040;11.528;2023-06-24T10:45:50;2.63;;;2.00;;
40621;SDS011;26324;52.040;11.528;2023-06-24T10:48:21;2.85;;;2.10;;
40621;SDS011;26324;52.040;11.528;2023-06-24T10:50:52;3.50;;;2.20;;
40621;SDS011;26324;52.040;11.528;2023-06-24T10:53:27;2.97;;;2.40;;
40621;SDS011;26324;52.040;11.528;2023-06-24T10:55:57;3.95;;;2.80;;
40621;SDS011;26324;52.040;11.528;2023-06-24T10:58:26;5.85;;;2.47;;
40621;SDS011;26324;52.040;11.528;2023-06-24T11:00:53;3.97;;;2.70;;
40621;SDS011;26324;52.040;11.528;2023-06-24T11:03:33;4.53;;;2.63;;
40621;SDS011;26324;52.040;11.528;2023-06-24T11:06:03;3.75;;;2.10;;
40621;SDS011;26324;52.040;11.528;2023-06-24T11:11:20;3.38;;;2.22;;
40621;SDS011;26324;52.040;11.528;2023-06-24T11:13:51;3.75;;;2.40;;
40621;SDS011;26324;52.040;11.528;2023-06-24T11:16:21;5.40;;;2.15;;
40621;SDS011;26324;52.040;11.528;2023-06-24T11:18:48;3.00;;;2.20;;
40621;SDS011;26324;52.040;11.528;2023-06-24T11:21:16;3.45;;;2.50;;
40621;SDS011;26324;52.040;11.528;2023-06-24T11:26:15;4.03;;;2.40;;
40621;SDS011;26324;52.040;11.528;2023-06-24T11:28:43;3.25;;;2.25;;
40621;SDS011;26324;52.040;11.528;2023-06-24T11:31:10;3.40;;;2.95;;
40621;SDS011;26324;52.040;11.528;2023-06-24T11:33:39;4.82;;;2.40;;
40621;SDS011;26324;52.040;11.528;2023-06-24T11:36:09;3.25;;;2.38;;
40621;SDS011;26324;52.040;11.528;2023-06-24T11:38:37;4.35;;;2.28;;
40621;SDS011;26324;52.040;11.528;2023-06-24T11:41:04;3.15;;;2.30;;
40621;SDS011;26324;52.040;11.528;2023-06-24T11:43:32;3.42;;;2.20;;
40621;SDS011;26324;52.040;11.528;2023-06-24T11:46:00;3.13;;;2.17;;
40621;SDS011;26324;52.040;11.528;2023-06-24T11:48:30;2.33;;;2.00;;
40621;SDS011;26324;52.040;11.528;2023-06-24T11:51:12;3.80;;;2.00;;
40621;SDS011;26324;52.040;11.528;2023-06-24T11:53:43;2.88;;;2.03;;
40621;SDS011;26324;52.040;11.528;2023-06-24T11:56:12;3.10;;;2.20;;
40621;SDS011;26324;52.040;11.528;2023-06-24T11:58:40;3.53;;;2.30;;
40621;SDS011;26324;52.040;11.528;2023-06-24T12:01:09;3.67;;;2.60;;
40621;SDS011;26324;52.040;11.528;2023-06-24T12:03:37;2.80;;;2.05;;
40621;SDS011;26324;52.040;11.528;2023-06-24T12:06:04;3.65;;;2.60;;
40621;SDS011;26324;52.040;11.528;2023-06-24T12:08:32;5.13;;;2.50;;
40621;SDS011;26324;52.040;11.528;2023-06-24T12:11:17;3.47;;;2.40;;
40621;SDS011;26324;52.040;11.528;2023-06-24T12:13:46;3.63;;;2.40;;
40621;SDS011;26324;52.040;11.528;2023-06-24T12:18:40;3.80;;;2.10;;
40621;SDS011;26324;52.040;11.528;2023-06-24T12:21:07;3.45;;;2.17;;
40621;SDS011;26324;52.040;11.528;2023-06-24T12:23:35;5.32;;;2.60;;
40621;SDS011;26324;52.040;11.528;2023-06-24T12:26:02;2.75;;;2.38;;
40621;SDS011;26324;52.040;11.528;2023-06-24T12:28:29;3.42;;;2.25;;
40621;SDS011;26324;52.040;11.528;2023-06-24T12:30:56;4.20;;;2.20;;
40621;SDS011;26324;52.040;11.528;2023-06-24T12:33:24;6.00;;;2.58;;
40621;SDS011;26324;52.040;11.528;2023-06-24T12:35:51;2.78;;;2.10;;
40621;SDS011;26324;52.040;11.528;2023-06-24T12:38:18;2.75;;;2.13;;
40621;SDS011;26324;52.040;11.528;2023-06-24T12:40:46;4.63;;;2.28;;
40621;SDS011;26324;52.040;11.528;2023-06-24T12:45:42;4.68;;;2.45;;
40621;SDS011;26324;52.040;11.528;2023-06-24T12:48:12;4.68;;;2.28;;
40621;SDS011;26324;52.040;11.528;2023-06-24T12:50:40;3.63;;;2.13;;
40621;SDS011;26324;52.040;11.528;2023-06-24T12:53:07;3.60;;;2.35;;
40621;SDS011;26324;52.040;11.528;2023-06-24T12:55:34;3.10;;;2.25;;
40621;SDS011;26324;52.040;11.528;2023-06-24T12:58:02;2.97;;;2.10;;
40621;SDS011;26324;52.040;11.528;2023-06-24T13:00:29;3.22;;;2.42;;
40621;SDS011;26324;52.040;11.528;2023-06-24T13:02:56;3.10;;;2.20;;
40621;SDS011;26324;52.040;11.528;2023-06-24T13:05:24;3.08;;;2.00;;
40621;SDS011;26324;52.040;11.528;2023-06-24T13:07:52;4.63;;;2.60;;
40621;SDS011;26324;52.040;11.528;2023-06-24T13:10:20;3.90;;;2.90;;
40621;SDS011;26324;52.040;11.528;2023-06-24T13:12:47;3.22;;;2.38;;
40621;SDS011;26324;52.040;11.528;2023-06-24T13:15:18;4.28;;;2.63;;
40621;SDS011;26324;52.040;11.528;2023-06-24T13:17:45;3.05;;;2.40;;
40621;SDS011;26324;52.040;11.528;2023-06-24T13:20:13;3.83;;;2.63;;
40621;SDS011;26324;52.040;11.528;2023-06-24T13:22:40;4.05;;;2.97;;
40621;SDS011;26324;52.040;11.528;2023-06-24T13:25:07;3.83;;;2.38;;
40621;SDS011;26324;52.040;11.528;2023-06-24T13:27:46;2.80;;;2.20;;
40621;SDS011;26324;52.040;11.528;2023-06-24T13:30:14;3.15;;;2.42;;
40621;SDS011;26324;52.040;11.528;2023-06-24T13:32:42;3.63;;;2.58;;
40621;SDS011;26324;52.040;11.528;2023-06-24T13:35:09;4.95;;;2.70;;
40621;SDS011;26324;52.040;11.528;2023-06-24T13:37:37;4.22;;;2.30;;
40621;SDS011;26324;52.040;11.528;2023-06-24T13:42:33;3.60;;;2.58;;
40621;SDS011;26324;52.040;11.528;2023-06-24T13:45:01;3.58;;;2.65;;
40621;SDS011;26324;52.040;11.528;2023-06-24T13:47:28;4.25;;;2.70;;
40621;SDS011;26324;52.040;11.528;2023-06-24T13:49:55;3.40;;;2.47;;
40621;SDS011;26324;52.040;11.528;2023-06-24T13:54:52;4.72;;;2.60;;
40621;SDS011;26324;52.040;11.528;2023-06-24T13:57:19;3.78;;;3.00;;
40621;SDS011;26324;52.040;11.528;2023-06-24T13:59:47;2.47;;;2.20;;
40621;SDS011;26324;52.040;11.528;2023-06-24T14:02:14;4.05;;;2.33;;
40621;SDS011;26324;52.040;11.528;2023-06-24T14:04:41;3.33;;;2.40;;
40621;SDS011;26324;52.040;11.528;2023-06-24T14:09:52;4.60;;;2.58;;
40621;SDS011;26324;52.040;11.528;2023-06-24T14:12:19;3.40;;;2.60;;
40621;SDS011;26324;52.040;11.528;2023-06-24T14:14:47;4.30;;;2.72;;
40621;SDS011;26324;52.040;11.528;2023-06-24T14:17:14;3.20;;;2.58;;
40621;SDS011;26324;52.040;11.528;2023-06-24T14:19:41;4.95;;;3.05;;
40621;SDS011;26324;52.040;11.528;2023-06-24T14:22:09;2.97;;;2.30;;
40621;SDS011;26324;52.040;11.528;2023-06-24T14:24:36;3.83;;;2.50;;
40621;SDS011;26324;52.040;11.528;2023-06-24T14:27:05;3.00;;;2.15;;
40621;SDS011;26324;52.040;11.528;2023-06-24T14:29:33;3.55;;;2.78;;
40621;SDS011;26324;52.040;11.528;2023-06-24T14:32:00;2.80;;;2.42;;
40621;SDS011;26324;52.040;11.528;2023-06-24T14:34:28;5.18;;;2.60;;
40621;SDS011;26324;52.040;11.528;2023-06-24T14:36:56;3.17;;;2.28;;
40621;SDS011;26324;52.040;11.528;2023-06-24T14:39:24;4.45;;;2.67;;
40621;SDS011;26324;52.040;11.528;2023-06-24T14:41:51;3.08;;;2.30;;
40621;SDS011;26324;52.040;11.528;2023-06-24T14:44:18;3.03;;;2.28;;
40621;SDS011;26324;52.040;11.528;2023-06-24T14:46:46;3.70;;;2.63;;
40621;SDS011;26324;52.040;11.528;2023-06-24T14:49:13;3.25;;;2.58;;
40621;SDS011;26324;52.040;11.528;2023-06-24T14:51:40;3.60;;;2.50;;
40621;SDS011;26324;52.040;11.528;2023-06-24T14:54:08;2.42;;;2.22;;
40621;SDS011;26324;52.040;11.528;2023-06-24T14:56:35;3.67;;;2.47;;
40621;SDS011;26324;52.040;11.528;2023-06-24T14:59:02;2.65;;;2.40;;
40621;SDS011;26324;52.040;11.528;2023-06-24T15:01:29;3.05;;;2.50;;
40621;SDS011;26324;52.040;11.528;2023-06-24T15:03:57;2.42;;;2.22;;
40621;SDS011;26324;52.040;11.528;2023-06-24T15:06:24;4.53;;;2.58;;
40621;SDS011;26324;52.040;11.528;2023-06-24T15:08:51;3.10;;;2.70;;
40621;SDS011;26324;52.040;11.528;2023-06-24T15:11:19;2.70;;;2.30;;
40621;SDS011;26324;52.040;11.528;2023-06-24T15:13:46;3.85;;;2.55;;
40621;SDS011;26324;52.040;11.528;2023-06-24T15:16:13;2.63;;;2.33;;
40621;SDS011;26324;52.040;11.528;2023-06-24T15:18:43;3.20;;;2.78;;